Time;durP1;ratioP1;P1;durP2;ratioP2;P2;SDS_P1;SDS_P2;PMS_P1;PMS_P2;Temp;Humidity;BMP_temperature;BMP_pressure;BME280_temperature;BME280_humidity;BME280_pressure;Samples;Min_cycle;Max_cycle;Signal;HPM_P1;HPM_P2
2023/01/28 00:02:13;;;;;;;5.68;5.18;;;2.00;1.00;;;;;;5039425;28;20309;-80
2023/01/28 00:04:41;;;;;;;6.35;5.45;;;2.00;1.00;;;;;;5030336;28;20343;-80
2023/01/28 00:07:09;;;;;;;5.18;4.50;;;1.90;1.00;;;;;;5045192;28;20213;-79
2023/01/28 00:09:38;;;;;;;6.85;4.82;;;2.00;1.00;;;;;;5045400;28;20208;-79
2023/01/28 00:12:06;;;;;;;4.72;4.28;;;2.10;1.00;;;;;;5035323;28;20202;-79
2023/01/28 00:14:35;;;;;;;5.32;4.82;;;2.00;1.00;;;;;;5039345;28;20217;-76
2023/01/28 00:17:05;;;;;;;7.88;5.50;;;1.90;1.00;;;;;;5040300;28;20198;-79
2023/01/28 00:19:34;;;;;;;7.07;5.50;;;1.90;1.00;;;;;;5036233;28;20255;-77
2023/01/28 00:22:03;;;;;;;7.50;5.22;;;1.90;1.00;;;;;;5038657;28;21819;-79
2023/01/28 00:24:33;;;;;;;7.38;5.65;;;1.90;1.00;;;;;;5039279;28;20218;-80
2023/01/28 00:27:01;;;;;;;6.82;5.28;;;1.90;1.00;;;;;;5030106;28;20205;-79
2023/01/28 00:29:29;;;;;;;6.68;4.95;;;1.90;1.00;;;;;;5040468;28;20214;-80
2023/01/28 00:31:57;;;;;;;7.47;5.00;;;2.00;1.00;;;;;;5055235;28;20185;-79
2023/01/28 00:34:25;;;;;;;6.78;5.28;;;2.00;1.00;;;;;;5050452;28;20324;-78
2023/01/28 00:36:57;;;;;;;5.60;5.07;;;1.90;1.00;;;;;;5049651;28;20296;-78
2023/01/28 00:39:26;;;;;;;6.18;4.90;;;1.90;1.00;;;;;;5049669;28;20206;-76
2023/01/28 00:41:54;;;;;;;8.23;5.55;;;1.90;1.00;;;;;;5043963;28;20224;-78
2023/01/28 00:44:22;;;;;;;10.70;4.97;;;1.90;1.00;;;;;;5043878;28;20268;-78
2023/01/28 00:46:51;;;;;;;8.50;5.75;;;1.90;1.00;;;;;;5048207;28;20201;-78
2023/01/28 00:49:19;;;;;;;6.65;5.50;;;1.90;1.00;;;;;;5045923;28;20201;-77
2023/01/28 00:51:48;;;;;;;7.43;4.90;;;1.90;1.00;;;;;;5049956;28;20205;-78
2023/01/28 00:54:17;;;;;;;5.57;4.88;;;1.80;1.00;;;;;;5046018;28;20200;-77
2023/01/28 00:56:46;;;;;;;5.90;4.75;;;1.80;55.50;;;;;;5052136;28;20559;-77
2023/01/28 00:59:14;;;;;;;6.97;4.90;;;1.90;9.10;;;;;;5056620;28;20220;-76
2023/01/28 01:01:42;;;;;;;6.03;4.95;;;1.90;1.00;;;;;;5055040;28;20201;-77
2023/01/28 01:04:11;;;;;;;5.65;4.63;;;1.90;72.40;;;;;;5056701;28;20197;-78
2023/01/28 01:06:40;;;;;;;5.22;4.50;;;1.80;99.90;;;;;;5050830;28;20603;-78
2023/01/28 01:09:11;;;;;;;6.60;5.28;;;1.90;96.50;;;;;;5054380;28;20197;-74
2023/01/28 01:11:40;;;;;;;6.13;5.03;;;1.90;1.60;;;;;;5051632;28;20233;-79
2023/01/28 01:14:10;;;;;;;5.50;5.00;;;1.90;28.20;;;;;;5050296;28;20729;-78
2023/01/28 01:16:39;;;;;;;6.03;5.35;;;1.90;1.00;;;;;;5051246;28;20194;-77
2023/01/28 01:19:07;;;;;;;5.45;4.80;;;1.90;1.00;;;;;;5050530;28;20201;-79
2023/01/28 01:21:36;;;;;;;5.32;4.80;;;1.90;1.00;;;;;;5057092;28;20333;-78
2023/01/28 01:24:04;;;;;;;5.60;5.10;;;1.90;52.80;;;;;;5052351;28;20937;-78
2023/01/28 01:26:32;;;;;;;5.50;4.55;;;1.90;75.40;;;;;;5050511;28;20213;-78
2023/01/28 01:29:02;;;;;;;7.45;4.70;;;2.00;1.00;;;;;;5051556;28;20680;-79
2023/01/28 01:31:30;;;;;;;5.38;4.50;;;1.80;42.30;;;;;;5044300;28;20202;-78
2023/01/28 01:33:59;;;;;;;6.90;5.25;;;1.80;99.90;;;;;;5055345;28;20198;-78
2023/01/28 01:36:27;;;;;;;5.18;4.53;;;1.90;99.90;;;;;;5043293;28;20296;-79
2023/01/28 01:38:55;;;;;;;5.43;4.35;;;1.90;91.50;;;;;;5051256;28;20230;-77
2023/01/28 01:41:27;;;;;;;5.20;4.65;;;1.80;7.40;;;;;;5046203;28;20205;-78
2023/01/28 01:43:57;;;;;;;5.32;4.80;;;1.90;99.90;;;;;;5050018;28;20315;-78
2023/01/28 01:46:35;;;;;;;4.82;4.43;;;1.90;99.90;;;;;;5045795;28;20303;-78
2023/01/28 01:49:11;;;;;;;9.88;6.30;;;2.00;99.90;;;;;;5043470;28;20200;-74
2023/01/28 01:51:40;;;;;;;6.10;5.00;;;1.90;1.00;;;;;;5044935;28;20211;-79
2023/01/28 01:54:08;;;;;;;7.43;5.40;;;1.80;48.90;;;;;;5050867;28;20196;-78
2023/01/28 01:56:41;;;;;;;4.47;4.00;;;1.80;99.90;;;;;;5047858;28;20205;-78
2023/01/28 01:59:12;;;;;;;6.00;5.10;;;1.90;99.90;;;;;;5045718;28;20244;-77
2023/01/28 02:01:44;;;;;;;4.88;4.18;;;2.00;86.40;;;;;;5045731;28;20566;-78
2023/01/28 02:04:19;;;;;;;5.50;5.00;;;1.90;3.90;;;;;;5047290;28;20221;-78
2023/01/28 02:06:48;;;;;;;6.25;4.60;;;1.80;99.90;;;;;;5050398;28;20677;-78
2023/01/28 02:09:24;;;;;;;8.38;5.57;;;1.90;99.90;;;;;;5053511;28;20209;-77
2023/01/28 02:11:55;;;;;;;6.00;5.00;;;1.90;99.90;;;;;;5053178;28;20249;-78
2023/01/28 02:14:26;;;;;;;6.95;4.80;;;2.00;99.90;;;;;;5050024;28;20949;-79
2023/01/28 02:17:00;;;;;;;5.97;4.60;;;2.00;99.90;;;;;;5045962;28;20630;-78
2023/01/28 02:19:36;;;;;;;5.10;4.60;;;2.10;99.90;;;;;;5046425;28;20201;-77
2023/01/28 02:22:15;;;;;;;6.43;4.60;;;1.90;99.90;;;;;;5047255;28;20200;-78
2023/01/28 02:25:02;;;;;;;8.27;5.32;;;1.90;1.00;;;;;;5048060;28;20767;-79
2023/01/28 02:27:36;;;;;;;6.18;4.90;;;1.80;1.00;;;;;;5046966;28;20312;-78
2023/01/28 02:30:15;;;;;;;5.50;4.72;;;1.90;1.00;;;;;;5051687;28;20211;-78
2023/01/28 02:32:53;;;;;;;7.70;4.65;;;2.00;1.00;;;;;;5047149;28;20220;-75
2023/01/28 02:35:29;;;;;;;5.82;5.22;;;2.00;99.90;;;;;;5047048;28;20312;-78
2023/01/28 02:38:03;;;;;;;4.95;4.28;;;2.00;99.90;;;;;;5044773;28;20278;-77
2023/01/28 02:41:00;;;;;;;5.18;4.55;;;2.00;99.90;;;;;;5044843;28;20198;-78
2023/01/28 02:43:31;;;;;;;6.10;5.13;;;1.90;1.00;;;;;;5042198;28;20217;-78
2023/01/28 02:48:48;;;;;;;5.40;4.78;;;1.90;1.00;;;;;;5051786;28;20212;-77
2023/01/28 02:51:24;;;;;;;5.93;5.03;;;1.90;1.00;;;;;;5045901;28;20227;-77
2023/01/28 02:53:59;;;;;;;7.28;5.18;;;1.90;99.90;;;;;;5050208;28;20277;-76
2023/01/28 02:56:35;;;;;;;6.15;5.40;;;1.90;1.00;;;;;;5050308;28;20240;-79
2023/01/28 03:02:02;;;;;;;5.65;4.75;;;1.90;1.00;;;;;;5049063;28;20209;-77
2023/01/28 03:04:33;;;;;;;6.13;4.88;;;1.90;1.00;;;;;;5048218;28;20224;-77
2023/01/28 03:07:06;;;;;;;4.78;4.07;;;1.90;1.00;;;;;;5053376;28;20205;-78
2023/01/28 03:09:36;;;;;;;6.63;4.55;;;1.90;1.20;;;;;;5049876;28;20196;-78
2023/01/28 03:37:33;;;;;;;5.85;4.30;;;2.00;1.00;;;;;;5051438;28;20200;-79
2023/01/28 03:40:04;;;;;;;4.63;4.10;;;2.10;53.60;;;;;;5048693;28;20205;-78
2023/01/28 03:42:33;;;;;;;5.25;4.80;;;2.00;99.90;;;;;;5050626;28;20210;-79
2023/01/28 03:45:04;;;;;;;4.90;3.80;;;2.00;99.90;;;;;;5041430;28;20630;-77
2023/01/28 03:47:32;;;;;;;4.90;4.15;;;2.00;15.20;;;;;;5045362;28;20736;-78
2023/01/28 03:50:04;;;;;;;5.63;4.70;;;2.00;99.90;;;;;;5045339;28;20201;-78
2023/01/28 03:52:33;;;;;;;4.70;4.13;;;2.00;99.90;;;;;;5042056;28;20393;-78
2023/01/28 03:55:11;;;;;;;5.45;4.57;;;2.00;99.90;;;;;;5041550;28;20698;-77
2023/01/28 03:57:40;;;;;;;5.97;5.03;;;2.00;99.90;;;;;;5045581;28;20289;-77
2023/01/28 04:00:10;;;;;;;5.53;4.95;;;2.00;1.00;;;;;;5041190;28;20290;-77
2023/01/28 04:02:39;;;;;;;6.03;4.68;;;2.00;1.00;;;;;;5047622;28;20209;-79
2023/01/28 04:05:11;;;;;;;5.65;4.72;;;2.00;99.90;;;;;;5045519;28;20731;-77
2023/01/28 04:07:40;;;;;;;5.75;4.55;;;1.90;99.90;;;;;;5050741;28;20256;-77
2023/01/28 04:10:10;;;;;;;5.63;4.95;;;1.90;99.90;;;;;;5049852;28;20284;-78
2023/01/28 04:12:38;;;;;;;6.15;5.10;;;1.90;1.00;;;;;;5039404;28;20660;-78
2023/01/28 04:15:14;;;;;;;5.82;5.07;;;1.90;99.90;;;;;;5040715;28;20221;-78
2023/01/28 04:17:46;;;;;;;7.35;5.30;;;1.80;99.90;;;;;;5046143;28;20282;-78
2023/01/28 04:20:16;;;;;;;5.60;4.35;;;1.90;1.00;;;;;;5051089;28;21009;-78
2023/01/28 04:22:44;;;;;;;5.97;5.20;;;1.80;1.00;;;;;;5048310;28;20665;-77
2023/01/28 04:25:12;;;;;;;6.93;5.68;;;1.80;26.10;;;;;;5043544;28;20936;-78
2023/01/28 04:27:41;;;;;;;6.88;6.07;;;1.90;24.30;;;;;;5043763;28;20232;-78
2023/01/28 04:30:10;;;;;;;6.10;5.30;;;2.00;1.00;;;;;;5055216;28;20279;-78
2023/01/28 04:32:38;;;;;;;5.95;5.25;;;1.90;99.90;;;;;;5054031;28;20198;-78
2023/01/28 04:35:07;;;;;;;6.53;5.93;;;1.90;44.30;;;;;;5057231;28;20765;-78
2023/01/28 04:37:36;;;;;;;6.85;5.47;;;1.90;99.90;;;;;;5045630;28;20205;-77
2023/01/28 04:40:05;;;;;;;6.75;5.75;;;1.90;1.00;;;;;;5049092;28;20196;-78
2023/01/28 04:42:33;;;;;;;6.20;5.10;;;2.00;26.00;;;;;;5050481;28;20197;-78
2023/01/28 04:45:02;;;;;;;5.78;4.95;;;1.90;1.00;;;;;;5051353;28;20439;-79
2023/01/28 04:47:30;;;;;;;9.95;6.28;;;2.00;99.90;;;;;;5050787;28;20205;-78
2023/01/28 04:49:58;;;;;;;6.65;5.95;;;2.00;99.90;;;;;;5047414;28;20259;-77
2023/01/28 04:52:26;;;;;;;9.20;7.28;;;2.10;1.00;;;;;;5048259;28;20216;-77
2023/01/28 04:54:55;;;;;;;5.78;5.18;;;2.00;1.00;;;;;;5054032;28;20220;-78
2023/01/28 04:57:24;;;;;;;7.13;6.28;;;2.10;99.90;;;;;;5041052;28;20220;-78
2023/01/28 04:59:52;;;;;;;7.53;6.63;;;2.10;49.10;;;;;;5052485;28;20288;-78
2023/01/28 05:02:20;;;;;;;7.20;5.80;;;2.00;99.90;;;;;;5044828;28;20214;-79
2023/01/28 05:04:48;;;;;;;8.40;6.28;;;2.10;1.00;;;;;;5052562;28;20252;-78
2023/01/28 05:07:16;;;;;;;6.22;5.63;;;2.10;99.90;;;;;;5051951;28;20469;-77
2023/01/28 05:09:44;;;;;;;8.02;6.25;;;2.10;1.00;;;;;;5053412;28;20305;-79
2023/01/28 05:12:14;;;;;;;6.85;5.72;;;2.10;99.90;;;;;;5054259;28;20212;-79
2023/01/28 05:14:42;;;;;;;7.68;6.50;;;2.10;99.90;;;;;;5053591;28;20218;-79
2023/01/28 05:17:10;;;;;;;6.43;5.82;;;2.20;1.00;;;;;;5051394;28;20205;-79
2023/01/28 05:19:38;;;;;;;5.93;5.30;;;2.20;1.00;;;;;;5051425;28;20209;-79
2023/01/28 05:22:06;;;;;;;8.70;6.40;;;2.10;99.90;;;;;;5055114;28;20255;-78
2023/01/28 05:24:34;;;;;;;10.98;7.70;;;2.10;1.00;;;;;;5050949;28;20276;-78
2023/01/28 05:27:02;;;;;;;8.73;6.95;;;2.10;99.90;;;;;;5051617;28;20196;-78
2023/01/28 05:29:32;;;;;;;7.53;6.72;;;2.20;1.00;;;;;;5046007;28;20193;-78
2023/01/28 05:32:00;;;;;;;10.35;7.20;;;2.20;62.30;;;;;;5045753;28;20221;-78
2023/01/28 05:34:28;;;;;;;9.75;6.90;;;2.10;99.90;;;;;;5050352;28;20193;-79
2023/01/28 05:36:56;;;;;;;7.85;6.68;;;2.20;59.20;;;;;;5043322;28;20204;-79
2023/01/28 05:39:25;;;;;;;11.77;7.00;;;2.20;1.00;;;;;;5048993;28;20192;-79
2023/01/28 05:41:53;;;;;;;7.85;7.05;;;2.00;99.90;;;;;;5048222;28;20214;-80
2023/01/28 05:44:21;;;;;;;7.97;6.55;;;2.10;99.90;;;;;;5044444;28;20352;-79
2023/01/28 05:46:51;;;;;;;6.68;6.00;;;2.10;99.90;;;;;;5046327;28;20191;-79
2023/01/28 05:49:19;;;;;;;6.88;6.25;;;2.10;1.00;;;;;;5048404;28;20278;-80
2023/01/28 05:51:48;;;;;;;9.38;7.80;;;2.10;1.00;;;;;;5051661;28;20232;-77
2023/01/28 05:54:16;;;;;;;7.63;6.35;;;2.10;99.90;;;;;;5046544;28;20208;-77
2023/01/28 05:56:46;;;;;;;7.03;6.32;;;2.10;99.90;;;;;;5050054;28;20212;-78
2023/01/28 05:59:14;;;;;;;7.68;6.72;;;2.00;99.90;;;;;;5043528;28;20765;-79
2023/01/28 06:01:42;;;;;;;8.43;6.80;;;2.10;99.90;;;;;;5042664;28;20209;-79
2023/01/28 06:04:12;;;;;;;7.68;6.88;;;2.10;99.90;;;;;;5039794;28;20853;-79
2023/01/28 06:06:40;;;;;;;8.73;6.90;;;2.10;99.90;;;;;;5050190;28;20479;-76
2023/01/28 06:09:09;;;;;;;8.27;7.00;;;2.10;99.90;;;;;;5053400;28;20213;-79
2023/01/28 06:11:37;;;;;;;6.80;5.95;;;2.00;99.90;;;;;;5036728;28;20669;-78
2023/01/28 06:14:05;;;;;;;8.75;6.53;;;1.90;1.00;;;;;;5046427;28;20629;-78
2023/01/28 06:16:33;;;;;;;7.20;6.50;;;2.10;1.00;;;;;;5045395;28;20296;-78
2023/01/28 06:19:02;;;;;;;9.95;7.05;;;2.00;99.90;;;;;;5046754;28;20223;-78
2023/01/28 06:21:31;;;;;;;7.18;6.45;;;2.00;1.00;;;;;;5051212;28;20212;-79
2023/01/28 06:23:59;;;;;;;8.93;6.63;;;2.00;99.90;;;;;;5047991;28;20259;-79
2023/01/28 06:26:28;;;;;;;13.35;6.60;;;2.10;1.00;;;;;;5053345;28;20243;-78
2023/01/28 06:28:56;;;;;;;7.90;5.63;;;2.00;99.90;;;;;;5048317;28;20672;-77
2023/01/28 06:31:24;;;;;;;7.03;6.35;;;2.00;1.00;;;;;;5040874;28;20212;-77
2023/01/28 06:33:52;;;;;;;8.05;6.45;;;2.00;99.90;;;;;;5047134;28;20684;-78
2023/01/28 06:36:20;;;;;;;8.80;6.60;;;2.00;1.40;;;;;;5047266;28;20307;-77
2023/01/28 06:38:50;;;;;;;7.75;6.95;;;2.10;1.00;;;;;;5047421;28;20234;-78
2023/01/28 06:41:18;;;;;;;6.72;5.90;;;2.00;1.00;;;;;;5049878;28;20204;-78
2023/01/28 06:43:46;;;;;;;6.75;6.05;;;2.00;99.90;;;;;;5043716;28;20666;-79
2023/01/28 06:46:14;;;;;;;9.68;7.63;;;2.00;99.90;;;;;;5048874;28;20933;-77
2023/01/28 06:48:42;;;;;;;8.00;6.57;;;2.00;39.30;;;;;;5047228;28;20243;-77
2023/01/28 06:51:11;;;;;;;7.53;6.75;;;2.00;10.30;;;;;;5045889;28;20201;-76
2023/01/28 06:53:39;;;;;;;6.50;6.00;;;2.10;99.90;;;;;;5051217;28;20656;-79
2023/01/28 06:56:09;;;;;;;6.55;5.93;;;2.10;1.00;;;;;;5052065;28;20216;-77
2023/01/28 06:58:37;;;;;;;8.02;6.60;;;2.10;99.90;;;;;;5050175;28;20217;-77
2023/01/28 07:01:05;;;;;;;7.50;6.45;;;1.90;1.00;;;;;;5051155;28;20615;-77
2023/01/28 07:03:33;;;;;;;8.50;6.15;;;2.00;36.50;;;;;;5050767;28;20208;-77
2023/01/28 07:06:01;;;;;;;8.45;5.65;;;2.10;1.00;;;;;;5053046;28;20224;-76
2023/01/28 07:08:30;;;;;;;9.43;7.10;;;2.00;1.00;;;;;;5051204;28;20200;-78
2023/01/28 07:10:58;;;;;;;8.70;6.40;;;2.10;1.00;;;;;;5050078;28;20316;-77
2023/01/28 07:13:27;;;;;;;7.15;5.82;;;2.00;99.90;;;;;;5048577;28;20197;-78
2023/01/28 07:15:56;;;;;;;6.90;6.18;;;2.10;99.90;;;;;;5050701;28;20854;-77
2023/01/28 07:18:24;;;;;;;7.95;6.65;;;2.10;55.10;;;;;;5051891;28;20188;-78
2023/01/28 07:20:52;;;;;;;7.32;5.85;;;2.10;72.30;;;;;;5052006;28;20217;-78
2023/01/28 07:23:20;;;;;;;8.20;6.50;;;2.10;1.00;;;;;;5050832;28;20344;-78
2023/01/28 07:25:48;;;;;;;9.07;6.97;;;2.00;1.00;;;;;;5051853;28;20224;-79
2023/01/28 07:28:20;;;;;;;8.68;6.30;;;2.00;99.90;;;;;;5046862;28;20197;-78
2023/01/28 07:30:51;;;;;;;8.43;7.20;;;2.10;1.00;;;;;;5051509;28;20190;-79
2023/01/28 07:33:20;;;;;;;7.75;6.95;;;2.10;99.90;;;;;;5052079;28;20194;-79
2023/01/28 07:35:49;;;;;;;6.93;5.63;;;2.10;99.90;;;;;;5052618;28;20228;-78
2023/01/28 07:38:17;;;;;;;8.07;6.72;;;2.10;1.00;;;;;;5055445;28;20205;-78
2023/01/28 07:40:46;;;;;;;8.68;6.80;;;2.20;99.90;;;;;;5053432;28;20278;-78
2023/01/28 07:43:14;;;;;;;9.10;7.05;;;2.10;99.90;;;;;;5044323;28;20205;-79
2023/01/28 07:45:42;;;;;;;7.47;6.65;;;2.10;1.00;;;;;;5045701;28;20244;-78
2023/01/28 07:48:13;;;;;;;6.68;5.97;;;2.10;1.00;;;;;;5044682;28;20760;-76
2023/01/28 07:50:41;;;;;;;8.18;6.47;;;2.10;99.90;;;;;;5049567;28;20205;-78
2023/01/28 07:53:11;;;;;;;12.13;8.00;;;2.00;1.00;;;;;;5043096;28;20693;-78
2023/01/28 07:55:39;;;;;;;9.45;8.23;;;2.10;1.00;;;;;;5052270;28;20292;-78
2023/01/28 07:58:10;;;;;;;12.82;9.30;;;2.00;1.00;;;;;;5043763;28;20209;-79
2023/01/28 08:00:39;;;;;;;7.35;6.63;;;2.20;1.00;;;;;;5048772;28;20188;-78
2023/01/28 08:03:12;;;;;;;8.52;7.03;;;2.20;1.00;;;;;;5048564;28;20225;-78
2023/01/28 08:05:45;;;;;;;9.60;8.40;;;2.20;99.90;;;;;;5044749;28;20250;-78
2023/01/28 08:08:14;;;;;;;11.30;8.75;;;2.30;65.20;;;;;;5054550;28;20229;-78
2023/01/28 08:10:43;;;;;;;8.88;7.75;;;2.40;1.00;;;;;;5050962;28;20218;-78
2023/01/28 08:13:13;;;;;;;8.18;7.20;;;2.30;99.90;;;;;;5047946;28;20201;-77
2023/01/28 08:15:41;;;;;;;10.07;7.22;;;2.30;1.00;;;;;;5048995;28;20322;-79
2023/01/28 08:18:12;;;;;;;11.20;7.75;;;2.40;1.00;;;;;;5048448;28;20290;-78
2023/01/28 08:20:43;;;;;;;10.95;9.07;;;2.40;99.90;;;;;;5046199;28;20205;-78
2023/01/28 08:23:14;;;;;;;14.40;8.23;;;2.40;1.00;;;;;;5047027;28;20202;-78
2023/01/28 08:25:43;;;;;;;14.15;8.70;;;2.40;1.00;;;;;;5051288;28;20232;-76
2023/01/28 08:28:13;;;;;;;11.85;9.10;;;2.40;99.90;;;;;;5053669;28;20288;-78
2023/01/28 08:30:41;;;;;;;9.60;7.85;;;2.50;1.00;;;;;;5053835;28;20209;-77
2023/01/28 08:33:11;;;;;;;8.63;7.60;;;2.50;99.90;;;;;;5053899;28;20213;-78
2023/01/28 08:35:40;;;;;;;8.55;7.65;;;2.50;99.90;;;;;;5040402;28;20232;-77
2023/01/28 08:38:11;;;;;;;9.57;8.57;;;2.50;61.00;;;;;;5047430;28;20672;-79
2023/01/28 08:40:39;;;;;;;10.40;8.95;;;2.50;1.00;;;;;;5040857;28;20213;-77
2023/01/28 08:43:08;;;;;;;8.93;7.80;;;2.50;99.90;;;;;;5046188;28;20670;-78
2023/01/28 08:45:36;;;;;;;14.38;10.00;;;2.60;99.90;;;;;;5043639;28;20217;-77
2023/01/28 08:48:05;;;;;;;17.50;10.32;;;2.50;1.00;;;;;;5048770;28;21013;-81
2023/01/28 08:50:36;;;;;;;12.48;9.05;;;2.60;1.00;;;;;;5056525;28;20199;-81
2023/01/28 08:53:07;;;;;;;9.93;8.88;;;2.60;1.00;;;;;;5048251;28;20204;-80
2023/01/28 08:55:48;;;;;;;13.88;8.77;;;2.80;99.90;;;;;;5048210;28;20213;-81
2023/01/28 08:58:25;;;;;;;10.98;9.15;;;2.60;1.00;;;;;;5053198;28;20221;-78
2023/01/28 09:00:53;;;;;;;10.30;7.95;;;2.70;99.90;;;;;;5053189;28;20197;-77
2023/01/28 09:03:21;;;;;;;9.63;7.25;;;2.70;99.90;;;;;;5048379;28;20205;-79
2023/01/28 09:05:49;;;;;;;9.48;7.70;;;2.60;1.00;;;;;;5050486;28;20216;-78
2023/01/28 09:08:18;;;;;;;9.07;8.02;;;2.70;1.00;;;;;;5051943;28;20708;-78
2023/01/28 09:10:47;;;;;;;10.55;7.55;;;2.90;99.90;;;;;;5054413;28;20200;-78
2023/01/28 09:13:16;;;;;;;11.35;8.02;;;2.80;99.90;;;;;;5054154;28;20198;-78
2023/01/28 09:15:44;;;;;;;7.70;6.93;;;2.90;99.90;;;;;;5051110;28;20221;-78
2023/01/28 09:18:12;;;;;;;9.57;7.93;;;2.80;99.90;;;;;;5038793;28;20205;-77
2023/01/28 09:20:41;;;;;;;7.22;6.38;;;2.90;99.90;;;;;;5048673;28;20913;-79
2023/01/28 09:23:09;;;;;;;9.30;6.50;;;3.00;9.60;;;;;;5055175;28;20296;-78
2023/01/28 09:25:37;;;;;;;7.68;6.95;;;2.90;1.00;;;;;;5051112;28;20216;-78
2023/01/28 09:28:07;;;;;;;10.40;9.00;;;3.00;1.00;;;;;;5039878;28;20459;-78
2023/01/28 09:30:36;;;;;;;7.50;6.80;;;2.90;1.00;;;;;;5049672;28;20684;-78
2023/01/28 09:33:05;;;;;;;11.32;8.68;;;3.00;1.00;;;;;;5050433;28;20196;-78
2023/01/28 09:35:35;;;;;;;9.95;7.78;;;3.00;1.00;;;;;;5050066;28;20303;-78
2023/01/28 09:38:04;;;;;;;9.40;7.55;;;3.10;99.90;;;;;;5035895;28;20262;-76
2023/01/28 09:40:35;;;;;;;10.93;8.50;;;3.10;1.00;;;;;;5047937;28;20226;-78
2023/01/28 09:43:34;;;;;;;9.90;7.47;;;3.20;99.90;;;;;;5047806;28;20203;-80
2023/01/28 09:46:06;;;;;;;12.10;8.43;;;3.10;99.90;;;;;;5044323;28;20248;-79
2023/01/28 09:48:40;;;;;;;10.52;7.40;;;3.20;99.90;;;;;;5044712;28;20221;-78
2023/01/28 09:51:10;;;;;;;9.73;7.18;;;3.10;99.90;;;;;;5041279;28;20575;-80
2023/01/28 09:53:43;;;;;;;10.40;7.60;;;3.20;99.90;;;;;;5040782;28;20196;-79
2023/01/28 09:56:15;;;;;;;9.52;8.43;;;3.30;82.20;;;;;;5051661;28;20231;-79
2023/01/28 09:58:45;;;;;;;10.65;8.50;;;3.20;86.30;;;;;;5046922;28;20194;-79
2023/01/28 10:01:31;;;;;;;9.43;7.90;;;3.10;99.90;;;;;;5044396;28;20221;-79
2023/01/28 10:04:07;;;;;;;10.18;7.95;;;3.10;90.10;;;;;;5047293;28;20206;-81
2023/01/28 10:06:45;;;;;;;10.35;7.72;;;3.20;1.00;;;;;;5046412;28;21703;-80
2023/01/28 10:09:27;;;;;;;12.60;8.35;;;3.20;1.00;;;;;;5056140;28;20218;-79
2023/01/28 10:12:06;;;;;;;9.63;7.60;;;3.20;1.00;;;;;;5049333;28;20276;-80
2023/01/28 10:14:49;;;;;;;10.52;8.75;;;3.20;1.00;;;;;;5050430;28;20210;-79
2023/01/28 10:17:25;;;;;;;9.98;8.98;;;3.20;17.00;;;;;;5050995;28;20301;-80
2023/01/28 10:19:57;;;;;;;10.63;8.20;;;3.10;1.00;;;;;;5052481;28;20201;-80
2023/01/28 10:22:30;;;;;;;12.00;7.60;;;3.10;1.00;;;;;;5048361;28;20199;-80
2023/01/28 10:25:05;;;;;;;9.93;7.93;;;3.20;33.30;;;;;;5046371;28;20228;-78
2023/01/28 10:27:35;;;;;;;10.20;7.60;;;3.10;38.50;;;;;;5037301;28;20221;-79
2023/01/28 10:30:19;;;;;;;10.30;8.20;;;3.10;1.00;;;;;;5044373;28;20197;-78
2023/01/28 10:32:53;;;;;;;10.02;7.78;;;3.10;32.70;;;;;;5043498;28;20198;-78
2023/01/28 10:35:22;;;;;;;10.77;8.20;;;3.10;82.00;;;;;;5049216;28;20249;-78
2023/01/28 10:38:00;;;;;;;10.48;8.75;;;3.10;19.00;;;;;;5048688;28;20193;-76
2023/01/28 10:40:28;;;;;;;15.32;10.82;;;3.20;28.30;;;;;;5046109;28;20190;-80
2023/01/28 10:42:57;;;;;;;10.85;8.63;;;3.20;99.90;;;;;;5045240;28;20292;-81
2023/01/28 10:45:29;;;;;;;11.80;8.10;;;3.10;65.10;;;;;;5036428;28;20227;-80
2023/01/28 10:48:03;;;;;;;10.23;8.35;;;3.10;1.00;;;;;;5051917;28;20215;-82
2023/01/28 10:50:33;;;;;;;14.23;8.85;;;3.20;1.00;;;;;;5042021;28;20223;-82
2023/01/28 10:53:04;;;;;;;13.38;9.75;;;3.20;1.00;;;;;;5047436;28;21118;-80
2023/01/28 10:55:38;;;;;;;13.90;10.15;;;3.30;1.00;;;;;;5051725;28;20223;-81
2023/01/28 10:58:17;;;;;;;13.65;10.20;;;3.30;1.00;;;;;;5053905;28;20703;-82
2023/01/28 11:00:53;;;;;;;14.75;10.52;;;3.30;1.00;;;;;;5056573;28;20259;-81
2023/01/28 11:03:23;;;;;;;11.65;8.38;;;3.30;1.00;;;;;;5049992;28;20254;-83
2023/01/28 11:05:52;;;;;;;16.30;11.20;;;3.40;1.00;;;;;;5052005;28;20502;-80
2023/01/28 11:08:24;;;;;;;16.35;10.68;;;3.30;1.00;;;;;;5052090;28;20469;-80
2023/01/28 11:10:55;;;;;;;16.88;10.38;;;3.40;1.00;;;;;;5053210;28;20199;-80
2023/01/28 11:13:26;;;;;;;12.80;10.05;;;3.30;91.60;;;;;;5054788;28;20225;-83
2023/01/28 11:16:01;;;;;;;13.02;11.30;;;3.40;32.50;;;;;;5051916;28;20223;-82
2023/01/28 11:18:33;;;;;;;11.48;8.98;;;3.30;1.00;;;;;;5050907;28;20194;-82
2023/01/28 11:21:04;;;;;;;15.95;9.95;;;3.30;1.00;;;;;;5047296;28;20204;-84
2023/01/28 11:23:38;;;;;;;13.40;9.30;;;3.20;1.00;;;;;;5052774;28;20221;-84
2023/01/28 11:26:08;;;;;;;14.43;10.98;;;3.30;1.00;;;;;;5056591;28;20226;-84
2023/01/28 11:28:41;;;;;;;16.58;11.02;;;3.40;66.80;;;;;;5058807;28;20242;-84
2023/01/28 11:31:13;;;;;;;16.15;10.07;;;3.20;27.50;;;;;;5053674;28;20209;-82
2023/01/28 11:33:47;;;;;;;13.88;9.65;;;3.10;99.90;;;;;;5047687;28;20210;-81
2023/01/28 11:36:18;;;;;;;15.82;10.50;;;3.10;99.90;;;;;;5052421;28;20309;-84
2023/01/28 11:38:52;;;;;;;14.82;11.00;;;3.10;1.00;;;;;;5056316;28;20233;-83
2023/01/28 11:41:27;;;;;;;15.82;11.07;;;3.20;99.90;;;;;;5054212;28;20198;-82
2023/01/28 11:43:56;;;;;;;14.93;10.32;;;3.20;1.00;;;;;;5054386;28;20212;-83
2023/01/28 11:46:50;;;;;;;15.32;10.13;;;3.20;99.90;;;;;;5054688;28;20228;-83
2023/01/28 11:49:27;;;;;;;14.15;10.00;;;3.10;1.00;;;;;;5037109;28;20273;-82
2023/01/28 11:52:05;;;;;;;11.73;10.07;;;3.20;1.00;;;;;;5042799;28;20223;-82
2023/01/28 11:54:47;;;;;;;13.60;10.70;;;3.30;99.90;;;;;;5047674;28;20214;-82
2023/01/28 11:57:23;;;;;;;13.05;9.40;;;3.30;99.90;;;;;;5051549;28;20203;-83
2023/01/28 12:00:20;;;;;;;13.85;9.20;;;3.20;99.90;;;;;;5053136;28;20229;-83
2023/01/28 12:03:00;;;;;;;11.88;8.00;;;3.20;99.90;;;;;;5051383;28;20843;-83
2023/01/28 12:05:48;;;;;;;9.93;8.23;;;3.20;99.90;;;;;;5058825;28;20836;-82
2023/01/28 12:08:23;;;;;;;11.65;8.30;;;3.20;99.90;;;;;;5059062;28;20223;-84
2023/01/28 12:14:21;;;;;;;11.35;7.95;;;3.20;99.90;;;;;;5054311;28;20209;-84
2023/01/28 12:16:57;;;;;;;11.85;8.60;;;3.40;96.80;;;;;;5068418;28;20205;-84
2023/01/28 12:19:50;;;;;;;12.40;9.38;;;3.30;1.00;;;;;;5063259;28;20206;-84
2023/01/28 12:22:58;;;;;;;11.25;8.48;;;3.30;30.20;;;;;;5048513;28;20241;-84
2023/01/28 12:25:46;;;;;;;12.23;8.57;;;3.30;1.50;;;;;;5060578;28;20733;-83
2023/01/28 12:28:29;;;;;;;12.57;8.95;;;3.30;49.60;;;;;;5059560;28;20232;-83
2023/01/28 12:31:18;;;;;;;11.68;9.15;;;3.30;1.00;;;;;;5060730;28;20200;-83
2023/01/28 12:34:28;;;;;;;8.65;7.75;;;3.30;53.90;;;;;;5058036;28;20197;-83
2023/01/28 12:37:06;;;;;;;11.98;9.15;;;3.30;1.00;;;;;;4995303;28;20211;-84
2023/01/28 12:39:48;;;;;;;15.73;9.85;;;3.20;99.90;;;;;;5049884;28;20216;-84
2023/01/28 12:42:27;;;;;;;14.02;9.63;;;3.20;45.80;;;;;;5063693;28;20202;-82
2023/01/28 12:45:02;;;;;;;13.20;8.70;;;3.30;99.90;;;;;;5055515;28;20212;-84
2023/01/28 12:47:36;;;;;;;12.18;8.50;;;3.30;99.90;;;;;;5058335;28;20189;-84
2023/01/28 12:50:13;;;;;;;11.40;7.75;;;3.30;99.90;;;;;;5061779;28;20245;-84
2023/01/28 12:52:49;;;;;;;12.93;9.30;;;3.30;99.90;;;;;;5052357;28;20232;-84
2023/01/28 12:55:22;;;;;;;12.27;8.90;;;3.30;49.20;;;;;;5055159;28;20222;-83
2023/01/28 12:57:51;;;;;;;13.02;9.20;;;3.30;99.90;;;;;;5059022;28;20214;-84
2023/01/28 13:00:28;;;;;;;17.63;11.75;;;3.30;99.90;;;;;;5064459;28;20696;-84
2023/01/28 13:03:06;;;;;;;15.07;11.10;;;3.30;99.90;;;;;;5058439;28;20194;-83
2023/01/28 13:05:40;;;;;;;16.92;10.80;;;3.30;99.90;;;;;;5060554;28;20230;-83
2023/01/28 13:08:15;;;;;;;17.63;11.25;;;3.30;99.90;;;;;;5055849;28;20202;-83
2023/01/28 13:10:45;;;;;;;16.38;11.65;;;3.40;99.90;;;;;;5061350;28;20260;-84
2023/01/28 13:13:18;;;;;;;13.45;9.43;;;3.30;99.90;;;;;;5060294;28;20205;-83
2023/01/28 13:15:46;;;;;;;12.18;9.10;;;3.30;99.90;;;;;;5061115;28;20596;-83
2023/01/28 13:18:34;;;;;;;12.00;8.70;;;3.30;99.90;;;;;;5055776;28;20248;-83
2023/01/28 13:21:04;;;;;;;15.10;9.38;;;3.30;99.90;;;;;;5058630;28;20211;-83
2023/01/28 13:23:43;;;;;;;11.95;9.52;;;3.30;99.90;;;;;;5057186;28;20195;-83
2023/01/28 13:26:30;;;;;;;9.15;8.02;;;3.30;99.90;;;;;;5042131;28;20264;-81
2023/01/28 13:29:29;;;;;;;34.92;17.10;;;3.30;99.90;;;;;;5043951;28;20523;-83
2023/01/28 13:31:59;;;;;;;17.15;10.75;;;3.30;99.90;;;;;;5041991;28;20261;-83
2023/01/28 13:34:33;;;;;;;12.52;9.20;;;3.30;99.90;;;;;;5046345;28;20210;-83
2023/01/28 13:37:15;;;;;;;13.23;8.82;;;3.30;99.90;;;;;;5039006;28;20659;-83
2023/01/28 13:39:49;;;;;;;16.67;11.05;;;3.30;99.90;;;;;;5050651;28;21143;-82
2023/01/28 13:42:26;;;;;;;16.20;9.57;;;3.20;99.90;;;;;;5041672;28;20566;-80
2023/01/28 13:44:54;;;;;;;14.20;8.93;;;3.30;1.00;;;;;;5044560;28;21028;-82
2023/01/28 13:47:27;;;;;;;10.82;8.50;;;3.40;99.90;;;;;;5037695;28;20290;-81
2023/01/28 13:49:58;;;;;;;11.00;7.95;;;3.50;99.90;;;;;;5051789;28;20240;-81
2023/01/28 13:52:32;;;;;;;11.77;8.20;;;3.50;99.90;;;;;;5045660;28;20269;-82
2023/01/28 13:55:05;;;;;;;11.98;7.88;;;3.50;99.90;;;;;;5045257;28;20697;-80
2023/01/28 13:58:02;;;;;;;9.07;6.97;;;3.40;99.90;;;;;;5042941;28;20223;-82